WTB27P EDDS-LOWW
Flight info
| Callsign | WTB27P |
|---|---|
| Flight time | 0h 52m |
| Altitude | 31000 |
| Route | ABTAL4B ABTAL L173 RIXED Y161 RIDAR Z98 MIQ L605 BIBAG Q104 AKIMA DCT MASUR MASUR3W |
| Aircraft | A20N/M-SDE2E3FGHIRWXY/LB1 |
Departure
| Time | 2026-05-07 18:25 |
|---|---|
| Airport | Stuttgart Airport (EDDS) |
Arrival
| Time | 2026-05-07 19:17 |
|---|---|
| Airport | Vienna International Airport (LOWW) |
| Time | Latitude | Longitude | Altitude | Speed | Heading |
|---|---|---|---|---|---|
| 2026-05-07 17:42 | 48.68918 | 9.20088 | 1297 ft | 0 kts | 164° |
| 2026-05-07 17:43 | 48.68922 | 9.20086 | 1297 ft | 0 kts | 164° |
| 2026-05-07 18:15 | 48.68918 | 9.20088 | 1297 ft | 2 kts | 164° |
| 2026-05-07 18:15 | 48.68891 | 9.20100 | 1295 ft | 7 kts | 164° |
| 2026-05-07 18:16 | 48.68869 | 9.20194 | 1291 ft | 13 kts | 76° |
| 2026-05-07 18:16 | 48.68886 | 9.20288 | 1289 ft | 14 kts | 74° |
| 2026-05-07 18:16 | 48.68919 | 9.20461 | 1287 ft | 18 kts | 73° |
| 2026-05-07 18:16 | 48.68958 | 9.20650 | 1279 ft | 22 kts | 70° |
| 2026-05-07 18:17 | 48.69001 | 9.20878 | 1274 ft | 25 kts | 76° |
| 2026-05-07 18:17 | 48.69052 | 9.21153 | 1271 ft | 27 kts | 74° |
| 2026-05-07 18:17 | 48.69099 | 9.21399 | 1265 ft | 27 kts | 73° |
| 2026-05-07 18:17 | 48.69157 | 9.21693 | 1259 ft | 30 kts | 73° |
| 2026-05-07 18:18 | 48.69211 | 9.21968 | 1256 ft | 21 kts | 73° |
| 2026-05-07 18:18 | 48.69250 | 9.22202 | 1255 ft | 24 kts | 75° |
| 2026-05-07 18:18 | 48.69303 | 9.22480 | 1236 ft | 24 kts | 73° |
| 2026-05-07 18:18 | 48.69350 | 9.22725 | 1231 ft | 27 kts | 74° |
| 2026-05-07 18:19 | 48.69414 | 9.23064 | 1224 ft | 30 kts | 74° |
| 2026-05-07 18:19 | 48.69468 | 9.23344 | 1219 ft | 32 kts | 74° |
| 2026-05-07 18:19 | 48.69531 | 9.23676 | 1212 ft | 32 kts | 74° |
| 2026-05-07 18:19 | 48.69567 | 9.23867 | 1208 ft | 19 kts | 73° |
| 2026-05-07 18:20 | 48.69607 | 9.24074 | 1203 ft | 21 kts | 72° |
| 2026-05-07 18:20 | 48.69579 | 9.24242 | 1196 ft | 14 kts | 120° |
| 2026-05-07 18:20 | 48.69530 | 9.24305 | 1192 ft | 0 kts | 164° |
| 2026-05-07 18:20 | 48.69521 | 9.24309 | 1191 ft | 2 kts | 165° |
| 2026-05-07 18:21 | 48.69518 | 9.24310 | 1191 ft | 1 kts | 165° |
| 2026-05-07 18:21 | 48.69503 | 9.24315 | 1190 ft | 3 kts | 165° |
| 2026-05-07 18:21 | 48.69486 | 9.24322 | 1190 ft | 0 kts | 165° |
| 2026-05-07 18:22 | 48.69470 | 9.24328 | 1190 ft | 8 kts | 166° |
| 2026-05-07 18:22 | 48.69388 | 9.24311 | 1191 ft | 7 kts | 249° |
| 2026-05-07 18:22 | 48.69384 | 9.24291 | 1191 ft | 0 kts | 255° |
| 2026-05-07 18:24 | 48.69374 | 9.24232 | 1193 ft | 29 kts | 255° |
| 2026-05-07 18:24 | 48.69241 | 9.23528 | 1207 ft | 109 kts | 253° |
| 2026-05-07 18:24 | 48.68978 | 9.22072 | 1272 ft | 167 kts | 255° |
| 2026-05-07 18:25 | 48.68666 | 9.20311 | 1961 ft | 177 kts | 259° |
| 2026-05-07 18:25 | 48.68358 | 9.18511 | 2891 ft | 179 kts | 256° |
| 2026-05-07 18:25 | 48.67982 | 9.16597 | 3592 ft | 194 kts | 255° |
| 2026-05-07 18:25 | 48.67573 | 9.14552 | 3870 ft | 214 kts | 255° |
| 2026-05-07 18:26 | 48.67075 | 9.12087 | 4151 ft | 239 kts | 254° |
| 2026-05-07 18:26 | 48.66390 | 9.09964 | 4798 ft | 246 kts | 227° |
| 2026-05-07 18:26 | 48.64917 | 9.08683 | 5594 ft | 250 kts | 191° |
| 2026-05-07 18:26 | 48.63171 | 9.09024 | 6415 ft | 255 kts | 155° |
| 2026-05-07 18:27 | 48.61793 | 9.10662 | 7164 ft | 260 kts | 124° |
| 2026-05-07 18:27 | 48.61211 | 9.13263 | 7894 ft | 267 kts | 95° |
| 2026-05-07 18:27 | 48.61349 | 9.16155 | 8287 ft | 287 kts | 79° |
| 2026-05-07 18:27 | 48.61553 | 9.18036 | 8663 ft | 293 kts | 83° |
| 2026-05-07 18:28 | 48.61814 | 9.22308 | 9688 ft | 300 kts | 87° |
| 2026-05-07 18:28 | 48.62009 | 9.25496 | 10413 ft | 305 kts | 79° |
| 2026-05-07 18:28 | 48.62608 | 9.28571 | 11093 ft | 310 kts | 68° |
| 2026-05-07 18:28 | 48.63469 | 9.31751 | 11311 ft | 334 kts | 67° |
| 2026-05-07 18:29 | 48.64402 | 9.35061 | 11643 ft | 349 kts | 66° |
| 2026-05-07 18:29 | 48.64941 | 9.37346 | 12035 ft | 354 kts | 77° |
| 2026-05-07 18:29 | 48.65090 | 9.42322 | 12942 ft | 358 kts | 94° |
| 2026-05-07 18:29 | 48.64943 | 9.46160 | 13658 ft | 361 kts | 94° |
| 2026-05-07 18:30 | 48.64787 | 9.49941 | 13973 ft | 364 kts | 94° |
| 2026-05-07 18:30 | 48.64679 | 9.52466 | 14035 ft | 364 kts | 94° |
| 2026-05-07 18:30 | 48.64517 | 9.56287 | 14069 ft | 364 kts | 94° |
| 2026-05-07 18:30 | 48.64354 | 9.60132 | 14558 ft | 368 kts | 94° |
| 2026-05-07 18:31 | 48.64191 | 9.64022 | 15143 ft | 372 kts | 94° |
| 2026-05-07 18:31 | 48.64029 | 9.67961 | 15746 ft | 375 kts | 94° |
| 2026-05-07 18:31 | 48.63864 | 9.71969 | 16356 ft | 379 kts | 94° |
| 2026-05-07 18:31 | 48.63700 | 9.75965 | 16938 ft | 382 kts | 94° |
| 2026-05-07 18:32 | 48.63531 | 9.80052 | 17513 ft | 386 kts | 94° |
| 2026-05-07 18:32 | 48.63360 | 9.84090 | 18091 ft | 389 kts | 94° |
| 2026-05-07 18:32 | 48.63180 | 9.88278 | 18625 ft | 392 kts | 94° |
| 2026-05-07 18:32 | 48.62999 | 9.92447 | 19124 ft | 395 kts | 94° |
| 2026-05-07 18:33 | 48.62819 | 9.96594 | 19617 ft | 398 kts | 94° |
| 2026-05-07 18:33 | 48.62635 | 10.00814 | 20108 ft | 401 kts | 94° |
| 2026-05-07 18:33 | 48.62450 | 10.05002 | 20590 ft | 404 kts | 94° |
| 2026-05-07 18:33 | 48.62258 | 10.09244 | 21072 ft | 406 kts | 94° |
| 2026-05-07 18:34 | 48.62062 | 10.13511 | 21545 ft | 409 kts | 94° |
| 2026-05-07 18:34 | 48.61863 | 10.17824 | 22007 ft | 412 kts | 94° |
| 2026-05-07 18:34 | 48.61658 | 10.22191 | 22471 ft | 414 kts | 94° |
| 2026-05-07 18:34 | 48.61456 | 10.26530 | 22920 ft | 417 kts | 94° |
| 2026-05-07 18:35 | 48.61252 | 10.30971 | 23370 ft | 420 kts | 94° |
| 2026-05-07 18:35 | 48.61052 | 10.35340 | 23777 ft | 422 kts | 94° |
| 2026-05-07 18:35 | 48.60845 | 10.39761 | 24147 ft | 425 kts | 94° |
| 2026-05-07 18:35 | 48.60634 | 10.44204 | 24505 ft | 427 kts | 94° |
| 2026-05-07 18:36 | 48.60416 | 10.48734 | 24864 ft | 430 kts | 94° |
| 2026-05-07 18:36 | 48.60194 | 10.53255 | 25228 ft | 432 kts | 94° |
| 2026-05-07 18:36 | 48.59971 | 10.57796 | 25573 ft | 434 kts | 94° |
| 2026-05-07 18:36 | 48.59743 | 10.62407 | 25921 ft | 437 kts | 94° |
| 2026-05-07 18:37 | 48.59522 | 10.66812 | 26267 ft | 438 kts | 94° |
| 2026-05-07 18:37 | 48.59283 | 10.71560 | 26622 ft | 440 kts | 94° |
| 2026-05-07 18:37 | 48.59050 | 10.76184 | 26964 ft | 442 kts | 94° |
| 2026-05-07 18:37 | 48.58817 | 10.80830 | 27301 ft | 444 kts | 94° |
| 2026-05-07 18:38 | 48.58623 | 10.85585 | 27641 ft | 446 kts | 92° |
| 2026-05-07 18:38 | 48.58487 | 10.90253 | 27974 ft | 448 kts | 92° |
| 2026-05-07 18:38 | 48.58378 | 10.95151 | 28321 ft | 450 kts | 91° |
| 2026-05-07 18:38 | 48.58280 | 10.99922 | 28645 ft | 451 kts | 91° |
| 2026-05-07 18:39 | 48.58177 | 11.04585 | 28965 ft | 453 kts | 92° |
| 2026-05-07 18:39 | 48.58058 | 11.09300 | 29280 ft | 455 kts | 92° |
| 2026-05-07 18:39 | 48.57928 | 11.14126 | 29591 ft | 457 kts | 92° |
| 2026-05-07 18:39 | 48.57811 | 11.18947 | 29889 ft | 458 kts | 91° |
| 2026-05-07 18:40 | 48.57713 | 11.23811 | 30166 ft | 460 kts | 91° |
| 2026-05-07 18:40 | 48.57630 | 11.28647 | 30393 ft | 462 kts | 91° |
| 2026-05-07 18:40 | 48.57549 | 11.33512 | 30611 ft | 464 kts | 91° |
| 2026-05-07 18:40 | 48.57462 | 11.38393 | 30789 ft | 467 kts | 91° |
| 2026-05-07 18:41 | 48.57366 | 11.43374 | 31002 ft | 468 kts | 91° |
| 2026-05-07 18:41 | 48.57198 | 11.51447 | 31060 ft | 451 kts | 91° |
| 2026-05-07 18:42 | 48.56662 | 11.62323 | 31060 ft | 444 kts | 102° |
| 2026-05-07 18:42 | 48.55319 | 11.71543 | 31061 ft | 444 kts | 103° |
| 2026-05-07 18:43 | 48.54203 | 11.79129 | 31063 ft | 445 kts | 103° |
| 2026-05-07 18:43 | 48.52625 | 11.89815 | 31064 ft | 445 kts | 103° |
| 2026-05-07 18:44 | 48.51282 | 11.98915 | 31054 ft | 445 kts | 103° |
| 2026-05-07 18:44 | 48.49926 | 12.08030 | 31053 ft | 444 kts | 103° |
| 2026-05-07 18:45 | 48.48555 | 12.17174 | 31054 ft | 444 kts | 103° |
| 2026-05-07 18:45 | 48.47187 | 12.26254 | 31047 ft | 444 kts | 103° |
| 2026-05-07 18:46 | 48.46040 | 12.33813 | 31048 ft | 445 kts | 103° |
| 2026-05-07 18:46 | 48.44655 | 12.42898 | 31048 ft | 445 kts | 103° |
| 2026-05-07 18:47 | 48.43246 | 12.52090 | 31050 ft | 445 kts | 103° |
| 2026-05-07 18:47 | 48.41867 | 12.61064 | 31051 ft | 445 kts | 103° |
| 2026-05-07 18:48 | 48.40450 | 12.70139 | 31054 ft | 445 kts | 103° |
| 2026-05-07 18:48 | 48.39827 | 12.79329 | 31054 ft | 444 kts | 86° |
| 2026-05-07 18:49 | 48.40108 | 12.87657 | 31053 ft | 445 kts | 86° |
| 2026-05-07 18:49 | 48.40356 | 12.95949 | 31054 ft | 445 kts | 86° |
| 2026-05-07 18:50 | 48.40680 | 13.07536 | 31051 ft | 445 kts | 87° |
| 2026-05-07 18:50 | 48.40940 | 13.16872 | 31047 ft | 446 kts | 87° |
| 2026-05-07 18:51 | 48.41190 | 13.26295 | 31049 ft | 447 kts | 87° |
| 2026-05-07 18:51 | 48.41474 | 13.35645 | 31051 ft | 447 kts | 85° |
| 2026-05-07 18:52 | 48.42039 | 13.45207 | 31050 ft | 447 kts | 83° |
| 2026-05-07 18:52 | 48.42654 | 13.54240 | 31045 ft | 447 kts | 84° |
| 2026-05-07 18:53 | 48.43219 | 13.63488 | 31049 ft | 446 kts | 85° |
| 2026-05-07 18:53 | 48.43737 | 13.72881 | 31050 ft | 446 kts | 85° |
| 2026-05-07 18:54 | 48.44239 | 13.82172 | 31047 ft | 446 kts | 85° |
| 2026-05-07 18:54 | 48.44751 | 13.91460 | 31048 ft | 446 kts | 85° |
| 2026-05-07 18:55 | 48.45258 | 14.00797 | 31052 ft | 446 kts | 86° |
| 2026-05-07 18:55 | 48.45508 | 14.05504 | 30907 ft | 442 kts | 86° |
| 2026-05-07 18:55 | 48.45748 | 14.10077 | 30647 ft | 432 kts | 86° |
| 2026-05-07 18:55 | 48.45980 | 14.14559 | 30402 ft | 425 kts | 86° |
| 2026-05-07 18:56 | 48.46206 | 14.18968 | 30160 ft | 420 kts | 86° |
| 2026-05-07 18:56 | 48.46433 | 14.23348 | 29879 ft | 417 kts | 86° |
| 2026-05-07 18:56 | 48.46657 | 14.27698 | 29589 ft | 415 kts | 86° |
| 2026-05-07 18:56 | 48.46878 | 14.32025 | 29301 ft | 414 kts | 86° |
| 2026-05-07 18:57 | 48.47099 | 14.36347 | 29016 ft | 412 kts | 86° |
| 2026-05-07 18:57 | 48.47318 | 14.40645 | 28722 ft | 410 kts | 87° |
| 2026-05-07 18:57 | 48.47531 | 14.44908 | 28448 ft | 406 kts | 87° |
| 2026-05-07 18:57 | 48.47740 | 14.49144 | 28012 ft | 401 kts | 87° |
| 2026-05-07 18:58 | 48.47944 | 14.53309 | 27568 ft | 398 kts | 87° |
| 2026-05-07 18:58 | 48.48147 | 14.57454 | 27129 ft | 394 kts | 87° |
| 2026-05-07 18:58 | 48.48348 | 14.61563 | 26688 ft | 392 kts | 87° |
| 2026-05-07 18:58 | 48.48540 | 14.65536 | 26255 ft | 389 kts | 87° |
| 2026-05-07 18:59 | 48.48740 | 14.69757 | 25774 ft | 387 kts | 87° |
| 2026-05-07 18:59 | 48.48925 | 14.73749 | 25321 ft | 386 kts | 87° |
| 2026-05-07 18:59 | 48.49110 | 14.77784 | 24867 ft | 384 kts | 86° |
| 2026-05-07 18:59 | 48.49294 | 14.81799 | 24383 ft | 384 kts | 86° |
| 2026-05-07 19:00 | 48.49478 | 14.85835 | 23893 ft | 383 kts | 88° |
| 2026-05-07 19:00 | 48.49384 | 14.89812 | 23373 ft | 381 kts | 98° |
| 2026-05-07 19:00 | 48.49099 | 14.93781 | 22873 ft | 379 kts | 97° |
| 2026-05-07 19:00 | 48.48822 | 14.97721 | 22404 ft | 377 kts | 97° |
| 2026-05-07 19:01 | 48.48547 | 15.01644 | 21938 ft | 375 kts | 97° |
| 2026-05-07 19:01 | 48.48271 | 15.05549 | 21457 ft | 374 kts | 97° |
| 2026-05-07 19:01 | 48.47991 | 15.09435 | 21008 ft | 373 kts | 97° |
| 2026-05-07 19:01 | 48.47705 | 15.13319 | 20550 ft | 372 kts | 98° |
| 2026-05-07 19:02 | 48.47416 | 15.17187 | 20098 ft | 371 kts | 98° |
| 2026-05-07 19:02 | 48.47123 | 15.21096 | 19632 ft | 370 kts | 98° |
| 2026-05-07 19:02 | 48.46834 | 15.24949 | 19180 ft | 369 kts | 98° |
| 2026-05-07 19:02 | 48.46547 | 15.28785 | 18733 ft | 369 kts | 98° |
| 2026-05-07 19:03 | 48.46260 | 15.32620 | 18283 ft | 368 kts | 97° |
| 2026-05-07 19:03 | 48.45968 | 15.36502 | 17796 ft | 367 kts | 97° |
| 2026-05-07 19:03 | 48.45684 | 15.40304 | 17358 ft | 364 kts | 97° |
| 2026-05-07 19:03 | 48.45400 | 15.44092 | 16923 ft | 362 kts | 97° |
| 2026-05-07 19:04 | 48.45117 | 15.47848 | 16496 ft | 360 kts | 97° |
| 2026-05-07 19:04 | 48.44830 | 15.51591 | 16066 ft | 358 kts | 97° |
| 2026-05-07 19:04 | 48.44541 | 15.55308 | 15646 ft | 356 kts | 97° |
| 2026-05-07 19:04 | 48.44253 | 15.59017 | 15231 ft | 355 kts | 97° |
| 2026-05-07 19:05 | 48.43968 | 15.62680 | 14846 ft | 352 kts | 97° |
| 2026-05-07 19:05 | 48.43683 | 15.66330 | 14502 ft | 349 kts | 97° |
| 2026-05-07 19:05 | 48.43399 | 15.69979 | 14092 ft | 348 kts | 97° |
| 2026-05-07 19:05 | 48.43120 | 15.73570 | 13786 ft | 343 kts | 97° |
| 2026-05-07 19:06 | 48.42841 | 15.77132 | 13333 ft | 342 kts | 97° |
| 2026-05-07 19:06 | 48.42359 | 15.83215 | 12587 ft | 338 kts | 97° |
| 2026-05-07 19:06 | 48.42096 | 15.86560 | 12039 ft | 330 kts | 97° |
| 2026-05-07 19:07 | 48.41826 | 15.89965 | 11625 ft | 318 kts | 98° |
| 2026-05-07 19:07 | 48.41565 | 15.93204 | 11238 ft | 312 kts | 98° |
| 2026-05-07 19:07 | 48.41298 | 15.96478 | 10834 ft | 313 kts | 98° |
| 2026-05-07 19:07 | 48.41033 | 15.99717 | 10507 ft | 310 kts | 98° |
| 2026-05-07 19:08 | 48.40773 | 16.02900 | 10060 ft | 306 kts | 98° |
| 2026-05-07 19:08 | 48.40515 | 16.06084 | 9693 ft | 305 kts | 97° |
| 2026-05-07 19:08 | 48.40260 | 16.09226 | 9215 ft | 302 kts | 97° |
| 2026-05-07 19:08 | 48.40002 | 16.12372 | 8867 ft | 299 kts | 97° |
| 2026-05-07 19:09 | 48.39749 | 16.15454 | 8449 ft | 299 kts | 97° |
| 2026-05-07 19:09 | 48.39494 | 16.18525 | 7987 ft | 292 kts | 97° |
| 2026-05-07 19:09 | 48.39242 | 16.21527 | 7546 ft | 286 kts | 97° |
| 2026-05-07 19:09 | 48.38987 | 16.24542 | 7131 ft | 287 kts | 97° |
| 2026-05-07 19:10 | 48.38740 | 16.27487 | 6714 ft | 288 kts | 97° |
| 2026-05-07 19:10 | 48.38486 | 16.30522 | 6285 ft | 289 kts | 97° |
| 2026-05-07 19:10 | 48.38240 | 16.33471 | 6165 ft | 277 kts | 97° |
| 2026-05-07 19:10 | 48.38004 | 16.36277 | 6054 ft | 265 kts | 97° |
| 2026-05-07 19:11 | 48.37776 | 16.38966 | 5950 ft | 254 kts | 97° |
| 2026-05-07 19:11 | 48.37552 | 16.41581 | 5841 ft | 248 kts | 97° |
| 2026-05-07 19:11 | 48.37188 | 16.44036 | 5691 ft | 233 kts | 113° |
| 2026-05-07 19:11 | 48.36397 | 16.46056 | 5542 ft | 225 kts | 132° |
| 2026-05-07 19:12 | 48.35207 | 16.47636 | 5301 ft | 221 kts | 151° |
| 2026-05-07 19:12 | 48.33795 | 16.48538 | 5034 ft | 218 kts | 168° |
| 2026-05-07 19:12 | 48.32353 | 16.49150 | 4744 ft | 218 kts | 167° |
| 2026-05-07 19:12 | 48.30908 | 16.49770 | 4447 ft | 212 kts | 167° |
| 2026-05-07 19:13 | 48.29543 | 16.50355 | 4195 ft | 196 kts | 168° |
| 2026-05-07 19:13 | 48.28238 | 16.50911 | 3920 ft | 188 kts | 168° |
| 2026-05-07 19:13 | 48.27026 | 16.51427 | 3674 ft | 175 kts | 166° |
| 2026-05-07 19:13 | 48.25888 | 16.51911 | 3470 ft | 167 kts | 166° |
| 2026-05-07 19:14 | 48.24778 | 16.52383 | 3236 ft | 165 kts | 166° |
| 2026-05-07 19:14 | 48.23668 | 16.52855 | 3013 ft | 162 kts | 166° |
| 2026-05-07 19:14 | 48.22578 | 16.53318 | 2792 ft | 160 kts | 166° |
| 2026-05-07 19:14 | 48.21518 | 16.53769 | 2585 ft | 159 kts | 166° |
| 2026-05-07 19:15 | 48.20472 | 16.54213 | 2374 ft | 158 kts | 166° |
| 2026-05-07 19:15 | 48.19396 | 16.54670 | 2157 ft | 157 kts | 166° |
| 2026-05-07 19:15 | 48.18337 | 16.55120 | 1950 ft | 155 kts | 166° |
| 2026-05-07 19:15 | 48.17273 | 16.55571 | 1735 ft | 152 kts | 166° |
| 2026-05-07 19:16 | 48.16309 | 16.55980 | 1535 ft | 152 kts | 166° |
| 2026-05-07 19:16 | 48.15286 | 16.56414 | 1326 ft | 151 kts | 167° |
| 2026-05-07 19:16 | 48.14228 | 16.56863 | 1109 ft | 148 kts | 167° |
| 2026-05-07 19:16 | 48.13287 | 16.57268 | 895 ft | 146 kts | 167° |
| 2026-05-07 19:17 | 48.12302 | 16.57694 | 699 ft | 145 kts | 166° |
| 2026-05-07 19:17 | 48.11359 | 16.58066 | 610 ft | 113 kts | 164° |
| 2026-05-07 19:17 | 48.10878 | 16.58273 | 625 ft | 49 kts | 162° |
| 2026-05-07 19:17 | 48.10625 | 16.58385 | 614 ft | 35 kts | 165° |
| 2026-05-07 19:18 | 48.10420 | 16.58464 | 614 ft | 20 kts | 176° |
| 2026-05-07 19:18 | 48.10280 | 16.58455 | 616 ft | 20 kts | 187° |
| 2026-05-07 19:18 | 48.10164 | 16.58414 | 624 ft | 8 kts | 202° |
| 2026-05-07 19:18 | 48.10136 | 16.58359 | 613 ft | 6 kts | 271° |
| 2026-05-07 19:19 | 48.10153 | 16.58313 | 622 ft | 5 kts | 323° |
| 2026-05-07 19:19 | 48.10203 | 16.58288 | 615 ft | 11 kts | 343° |
| 2026-05-07 19:19 | 48.10288 | 16.58253 | 614 ft | 13 kts | 345° |
| 2026-05-07 19:19 | 48.10375 | 16.58218 | 612 ft | 12 kts | 345° |
| 2026-05-07 19:20 | 48.10448 | 16.58189 | 616 ft | 9 kts | 344° |
| 2026-05-07 19:20 | 48.10497 | 16.58166 | 624 ft | 6 kts | 343° |
| 2026-05-07 19:20 | 48.10536 | 16.58148 | 627 ft | 5 kts | 343° |
| 2026-05-07 19:20 | 48.10570 | 16.58134 | 612 ft | 6 kts | 345° |
| 2026-05-07 19:21 | 48.10643 | 16.58104 | 619 ft | 15 kts | 343° |
| 2026-05-07 19:21 | 48.10767 | 16.58050 | 615 ft | 19 kts | 344° |
| 2026-05-07 19:21 | 48.10894 | 16.57996 | 620 ft | 17 kts | 344° |
| 2026-05-07 19:21 | 48.10999 | 16.57952 | 625 ft | 15 kts | 344° |
| 2026-05-07 19:22 | 48.11093 | 16.57897 | 616 ft | 14 kts | 321° |
| 2026-05-07 19:22 | 48.11136 | 16.57786 | 616 ft | 9 kts | 296° |
| 2026-05-07 19:22 | 48.11156 | 16.57722 | 627 ft | 5 kts | 295° |
| 2026-05-07 19:22 | 48.11170 | 16.57679 | 623 ft | 6 kts | 295° |
| 2026-05-07 19:23 | 48.11197 | 16.57593 | 616 ft | 13 kts | 295° |
| 2026-05-07 19:23 | 48.11244 | 16.57445 | 625 ft | 18 kts | 296° |
| 2026-05-07 19:23 | 48.11298 | 16.57279 | 622 ft | 18 kts | 296° |
| 2026-05-07 19:23 | 48.11357 | 16.57101 | 618 ft | 20 kts | 296° |
| 2026-05-07 19:24 | 48.11417 | 16.56906 | 624 ft | 22 kts | 295° |
| 2026-05-07 19:24 | 48.11486 | 16.56694 | 615 ft | 24 kts | 296° |
| 2026-05-07 19:24 | 48.11563 | 16.56469 | 619 ft | 25 kts | 297° |
| 2026-05-07 19:24 | 48.11637 | 16.56244 | 619 ft | 24 kts | 296° |
| 2026-05-07 19:25 | 48.11711 | 16.56014 | 619 ft | 24 kts | 296° |
| 2026-05-07 19:25 | 48.11792 | 16.55827 | 616 ft | 10 kts | 350° |
| 2026-05-07 19:25 | 48.11847 | 16.55868 | 609 ft | 10 kts | 23° |
| 2026-05-07 19:25 | 48.11928 | 16.55920 | 600 ft | 14 kts | 23° |
| 2026-05-07 19:26 | 48.11951 | 16.55917 | 599 ft | 1 kts | 293° |
| 2026-05-07 19:26 | 48.11956 | 16.55898 | 599 ft | 2 kts | 294° |
| 2026-05-07 19:26 | 48.11964 | 16.55873 | 599 ft | 5 kts | 297° |
| 2026-05-07 19:26 | 48.11974 | 16.55843 | 598 ft | 4 kts | 297° |
| 2026-05-07 19:27 | 48.11978 | 16.55832 | 598 ft | 1 kts | 297° |
| 2026-05-07 19:27 | 48.11980 | 16.55828 | 598 ft | 0 kts | 297° |
| 2026-05-07 19:27 | 48.11980 | 16.55827 | 598 ft | 0 kts | 297° |